sensor_id;sensor_type;location;lat;lon;timestamp;P1;durP1;ratioP1;P2;durP2;ratioP2
18738;SDS011;9498;51.862;19.460;2023-04-23T00:02:25;18.17;;;7.00;;
18738;SDS011;9498;51.862;19.460;2023-04-23T00:04:53;14.13;;;6.50;;
18738;SDS011;9498;51.862;19.460;2023-04-23T00:07:22;14.60;;;6.13;;
18738;SDS011;9498;51.862;19.460;2023-04-23T00:09:50;18.37;;;6.23;;
18738;SDS011;9498;51.862;19.460;2023-04-23T00:12:18;12.73;;;6.40;;
18738;SDS011;9498;51.862;19.460;2023-04-23T00:14:47;15.23;;;6.33;;
18738;SDS011;9498;51.862;19.460;2023-04-23T00:17:14;11.97;;;6.23;;
18738;SDS011;9498;51.862;19.460;2023-04-23T00:19:42;14.00;;;6.20;;
18738;SDS011;9498;51.862;19.460;2023-04-23T00:22:09;15.93;;;6.07;;
18738;SDS011;9498;51.862;19.460;2023-04-23T00:24:37;12.33;;;6.57;;
18738;SDS011;9498;51.862;19.460;2023-04-23T00:27:05;13.37;;;6.60;;
18738;SDS011;9498;51.862;19.460;2023-04-23T00:29:32;13.10;;;6.07;;
18738;SDS011;9498;51.862;19.460;2023-04-23T00:32:01;13.40;;;6.57;;
18738;SDS011;9498;51.862;19.460;2023-04-23T00:34:28;13.83;;;6.47;;
18738;SDS011;9498;51.862;19.460;2023-04-23T00:36:55;16.20;;;6.17;;
18738;SDS011;9498;51.862;19.460;2023-04-23T00:39:22;14.77;;;6.43;;
18738;SDS011;9498;51.862;19.460;2023-04-23T00:41:50;15.23;;;6.83;;
18738;SDS011;9498;51.862;19.460;2023-04-23T00:44:17;13.20;;;6.47;;
18738;SDS011;9498;51.862;19.460;2023-04-23T00:46:44;17.80;;;6.47;;
18738;SDS011;9498;51.862;19.460;2023-04-23T00:49:13;12.67;;;6.40;;
18738;SDS011;9498;51.862;19.460;2023-04-23T00:51:41;15.73;;;6.60;;
18738;SDS011;9498;51.862;19.460;2023-04-23T00:54:08;13.37;;;6.67;;
18738;SDS011;9498;51.862;19.460;2023-04-23T00:56:35;13.87;;;6.47;;
18738;SDS011;9498;51.862;19.460;2023-04-23T00:59:03;13.73;;;6.40;;
18738;SDS011;9498;51.862;19.460;2023-04-23T01:01:31;13.67;;;5.77;;
18738;SDS011;9498;51.862;19.460;2023-04-23T01:03:58;14.00;;;7.50;;
18738;SDS011;9498;51.862;19.460;2023-04-23T01:06:27;18.63;;;6.60;;
18738;SDS011;9498;51.862;19.460;2023-04-23T01:08:55;21.83;;;7.37;;
18738;SDS011;9498;51.862;19.460;2023-04-23T01:11:23;16.97;;;7.47;;
18738;SDS011;9498;51.862;19.460;2023-04-23T01:13:50;14.00;;;7.00;;
18738;SDS011;9498;51.862;19.460;2023-04-23T01:16:18;16.90;;;6.93;;
18738;SDS011;9498;51.862;19.460;2023-04-23T01:18:45;16.40;;;6.90;;
18738;SDS011;9498;51.862;19.460;2023-04-23T01:21:12;13.77;;;6.93;;
18738;SDS011;9498;51.862;19.460;2023-04-23T01:23:42;17.53;;;6.83;;
18738;SDS011;9498;51.862;19.460;2023-04-23T01:26:09;14.30;;;6.73;;
18738;SDS011;9498;51.862;19.460;2023-04-23T01:28:36;14.17;;;7.07;;
18738;SDS011;9498;51.862;19.460;2023-04-23T01:31:04;13.13;;;7.20;;
18738;SDS011;9498;51.862;19.460;2023-04-23T01:33:31;15.13;;;6.83;;
18738;SDS011;9498;51.862;19.460;2023-04-23T01:35:59;18.20;;;6.97;;
18738;SDS011;9498;51.862;19.460;2023-04-23T01:38:26;12.80;;;6.70;;
18738;SDS011;9498;51.862;19.460;2023-04-23T01:40:56;14.13;;;7.10;;
18738;SDS011;9498;51.862;19.460;2023-04-23T01:43:23;12.20;;;6.40;;
18738;SDS011;9498;51.862;19.460;2023-04-23T01:45:50;15.47;;;6.70;;
18738;SDS011;9498;51.862;19.460;2023-04-23T01:48:18;15.47;;;7.70;;
18738;SDS011;9498;51.862;19.460;2023-04-23T01:50:45;14.80;;;6.73;;
18738;SDS011;9498;51.862;19.460;2023-04-23T01:53:12;18.00;;;7.30;;
18738;SDS011;9498;51.862;19.460;2023-04-23T01:55:40;14.87;;;7.40;;
18738;SDS011;9498;51.862;19.460;2023-04-23T01:58:08;15.43;;;7.20;;
18738;SDS011;9498;51.862;19.460;2023-04-23T02:00:35;15.90;;;7.70;;
18738;SDS011;9498;51.862;19.460;2023-04-23T02:03:03;16.83;;;7.93;;
18738;SDS011;9498;51.862;19.460;2023-04-23T02:05:30;14.93;;;6.93;;
18738;SDS011;9498;51.862;19.460;2023-04-23T02:08:00;15.00;;;7.40;;
18738;SDS011;9498;51.862;19.460;2023-04-23T02:10:28;13.53;;;7.20;;
18738;SDS011;9498;51.862;19.460;2023-04-23T02:12:56;17.20;;;6.87;;
18738;SDS011;9498;51.862;19.460;2023-04-23T02:15:24;16.73;;;7.20;;
18738;SDS011;9498;51.862;19.460;2023-04-23T02:17:52;14.97;;;7.43;;
18738;SDS011;9498;51.862;19.460;2023-04-23T02:20:19;15.27;;;7.10;;
18738;SDS011;9498;51.862;19.460;2023-04-23T02:22:47;15.90;;;7.40;;
18738;SDS011;9498;51.862;19.460;2023-04-23T02:25:15;15.37;;;7.47;;
18738;SDS011;9498;51.862;19.460;2023-04-23T02:27:42;14.70;;;7.13;;
18738;SDS011;9498;51.862;19.460;2023-04-23T02:30:09;14.27;;;7.87;;
18738;SDS011;9498;51.862;19.460;2023-04-23T02:32:38;14.23;;;7.13;;
18738;SDS011;9498;51.862;19.460;2023-04-23T02:35:07;15.10;;;7.40;;
18738;SDS011;9498;51.862;19.460;2023-04-23T02:37:34;15.57;;;7.30;;
18738;SDS011;9498;51.862;19.460;2023-04-23T02:40:02;18.40;;;7.47;;
18738;SDS011;9498;51.862;19.460;2023-04-23T02:42:30;13.73;;;7.40;;
18738;SDS011;9498;51.862;19.460;2023-04-23T02:44:58;15.60;;;7.43;;
18738;SDS011;9498;51.862;19.460;2023-04-23T02:47:25;15.77;;;7.63;;
18738;SDS011;9498;51.862;19.460;2023-04-23T02:49:54;14.57;;;7.40;;
18738;SDS011;9498;51.862;19.460;2023-04-23T02:52:21;16.30;;;7.57;;
18738;SDS011;9498;51.862;19.460;2023-04-23T02:54:48;14.90;;;7.37;;
18738;SDS011;9498;51.862;19.460;2023-04-23T02:57:16;17.10;;;7.93;;
18738;SDS011;9498;51.862;19.460;2023-04-23T02:59:43;20.13;;;8.00;;
18738;SDS011;9498;51.862;19.460;2023-04-23T03:02:10;17.67;;;7.60;;
18738;SDS011;9498;51.862;19.460;2023-04-23T03:04:38;13.70;;;7.30;;
18738;SDS011;9498;51.862;19.460;2023-04-23T03:07:07;18.77;;;7.80;;
18738;SDS011;9498;51.862;19.460;2023-04-23T03:09:34;19.73;;;8.37;;
18738;SDS011;9498;51.862;19.460;2023-04-23T03:12:02;18.67;;;8.20;;
18738;SDS011;9498;51.862;19.460;2023-04-23T03:14:29;16.57;;;7.63;;
18738;SDS011;9498;51.862;19.460;2023-04-23T03:16:56;17.43;;;7.97;;
18738;SDS011;9498;51.862;19.460;2023-04-23T03:19:24;13.70;;;7.63;;
18738;SDS011;9498;51.862;19.460;2023-04-23T03:21:51;20.43;;;8.53;;
18738;SDS011;9498;51.862;19.460;2023-04-23T03:24:20;13.67;;;7.40;;
18738;SDS011;9498;51.862;19.460;2023-04-23T03:26:47;16.67;;;8.33;;
18738;SDS011;9498;51.862;19.460;2023-04-23T03:29:15;17.50;;;8.03;;
18738;SDS011;9498;51.862;19.460;2023-04-23T03:31:42;15.13;;;8.07;;
18738;SDS011;9498;51.862;19.460;2023-04-23T03:34:09;17.03;;;8.70;;
18738;SDS011;9498;51.862;19.460;2023-04-23T03:36:36;18.20;;;8.70;;
18738;SDS011;9498;51.862;19.460;2023-04-23T03:39:04;18.63;;;8.87;;
18738;SDS011;9498;51.862;19.460;2023-04-23T03:41:33;17.77;;;8.23;;
18738;SDS011;9498;51.862;19.460;2023-04-23T03:44:00;19.20;;;8.47;;
18738;SDS011;9498;51.862;19.460;2023-04-23T03:46:28;18.83;;;8.90;;
18738;SDS011;9498;51.862;19.460;2023-04-23T03:48:55;19.53;;;8.83;;
18738;SDS011;9498;51.862;19.460;2023-04-23T03:51:22;19.17;;;8.83;;
18738;SDS011;9498;51.862;19.460;2023-04-23T03:53:49;20.20;;;8.60;;
18738;SDS011;9498;51.862;19.460;2023-04-23T03:56:16;20.00;;;8.47;;
18738;SDS011;9498;51.862;19.460;2023-04-23T03:58:45;16.90;;;8.57;;
18738;SDS011;9498;51.862;19.460;2023-04-23T04:01:12;19.20;;;8.50;;
18738;SDS011;9498;51.862;19.460;2023-04-23T04:03:40;16.50;;;8.67;;
18738;SDS011;9498;51.862;19.460;2023-04-23T04:06:07;18.83;;;9.03;;
18738;SDS011;9498;51.862;19.460;2023-04-23T04:08:35;19.67;;;8.87;;
18738;SDS011;9498;51.862;19.460;2023-04-23T04:11:02;17.40;;;8.80;;
18738;SDS011;9498;51.862;19.460;2023-04-23T04:13:29;22.13;;;9.23;;
18738;SDS011;9498;51.862;19.460;2023-04-23T04:15:58;16.90;;;8.27;;
18738;SDS011;9498;51.862;19.460;2023-04-23T04:18:25;16.37;;;7.80;;
18738;SDS011;9498;51.862;19.460;2023-04-23T04:20:52;18.43;;;8.47;;
18738;SDS011;9498;51.862;19.460;2023-04-23T04:23:19;18.67;;;8.80;;
18738;SDS011;9498;51.862;19.460;2023-04-23T04:25:47;17.20;;;8.73;;
18738;SDS011;9498;51.862;19.460;2023-04-23T04:28:15;19.60;;;8.60;;
18738;SDS011;9498;51.862;19.460;2023-04-23T04:30:42;17.57;;;8.83;;
18738;SDS011;9498;51.862;19.460;2023-04-23T04:33:11;20.10;;;8.97;;
18738;SDS011;9498;51.862;19.460;2023-04-23T04:35:39;22.97;;;8.47;;
18738;SDS011;9498;51.862;19.460;2023-04-23T04:38:06;19.33;;;8.07;;
18738;SDS011;9498;51.862;19.460;2023-04-23T04:40:34;20.37;;;8.37;;
18738;SDS011;9498;51.862;19.460;2023-04-23T04:43:01;17.37;;;8.63;;
18738;SDS011;9498;51.862;19.460;2023-04-23T04:45:30;18.33;;;8.17;;
18738;SDS011;9498;51.862;19.460;2023-04-23T04:47:57;20.00;;;8.50;;
18738;SDS011;9498;51.862;19.460;2023-04-23T04:50:26;18.37;;;8.57;;
18738;SDS011;9498;51.862;19.460;2023-04-23T04:52:53;17.10;;;8.70;;
18738;SDS011;9498;51.862;19.460;2023-04-23T04:55:20;17.27;;;8.03;;
18738;SDS011;9498;51.862;19.460;2023-04-23T04:57:48;20.50;;;8.43;;
18738;SDS011;9498;51.862;19.460;2023-04-23T05:00:18;17.50;;;8.67;;
18738;SDS011;9498;51.862;19.460;2023-04-23T05:02:47;15.40;;;7.70;;
18738;SDS011;9498;51.862;19.460;2023-04-23T05:05:14;16.40;;;7.60;;
18738;SDS011;9498;51.862;19.460;2023-04-23T05:07:42;18.60;;;8.23;;
18738;SDS011;9498;51.862;19.460;2023-04-23T05:10:10;14.37;;;8.10;;
18738;SDS011;9498;51.862;19.460;2023-04-23T05:12:38;13.73;;;7.20;;
18738;SDS011;9498;51.862;19.460;2023-04-23T05:15:06;16.23;;;7.90;;
18738;SDS011;9498;51.862;19.460;2023-04-23T05:17:34;18.57;;;7.83;;
18738;SDS011;9498;51.862;19.460;2023-04-23T05:20:01;15.73;;;7.63;;
18738;SDS011;9498;51.862;19.460;2023-04-23T05:22:29;12.50;;;7.07;;
18738;SDS011;9498;51.862;19.460;2023-04-23T05:24:57;14.50;;;6.80;;
18738;SDS011;9498;51.862;19.460;2023-04-23T05:27:25;16.73;;;6.90;;
18738;SDS011;9498;51.862;19.460;2023-04-23T05:29:52;16.13;;;8.07;;
18738;SDS011;9498;51.862;19.460;2023-04-23T05:32:19;13.00;;;7.00;;
18738;SDS011;9498;51.862;19.460;2023-04-23T05:34:46;13.13;;;6.77;;
18738;SDS011;9498;51.862;19.460;2023-04-23T05:37:14;14.27;;;7.23;;
18738;SDS011;9498;51.862;19.460;2023-04-23T05:39:41;19.67;;;8.20;;
18738;SDS011;9498;51.862;19.460;2023-04-23T05:42:09;16.10;;;7.60;;
18738;SDS011;9498;51.862;19.460;2023-04-23T05:44:37;16.53;;;7.23;;
18738;SDS011;9498;51.862;19.460;2023-04-23T05:47:05;16.87;;;8.53;;
18738;SDS011;9498;51.862;19.460;2023-04-23T05:49:33;14.13;;;7.43;;
18738;SDS011;9498;51.862;19.460;2023-04-23T05:52:01;14.23;;;7.63;;
18738;SDS011;9498;51.862;19.460;2023-04-23T05:54:28;17.03;;;8.03;;
18738;SDS011;9498;51.862;19.460;2023-04-23T05:56:55;14.47;;;7.07;;
18738;SDS011;9498;51.862;19.460;2023-04-23T05:59:24;15.10;;;7.80;;
18738;SDS011;9498;51.862;19.460;2023-04-23T06:01:51;16.30;;;7.70;;
18738;SDS011;9498;51.862;19.460;2023-04-23T06:04:19;16.00;;;8.00;;
18738;SDS011;9498;51.862;19.460;2023-04-23T06:06:46;16.40;;;8.10;;
18738;SDS011;9498;51.862;19.460;2023-04-23T06:09:13;16.50;;;7.83;;
18738;SDS011;9498;51.862;19.460;2023-04-23T06:11:41;18.70;;;9.00;;
18738;SDS011;9498;51.862;19.460;2023-04-23T06:14:08;17.33;;;8.57;;
18738;SDS011;9498;51.862;19.460;2023-04-23T06:16:36;13.77;;;7.83;;
18738;SDS011;9498;51.862;19.460;2023-04-23T06:19:04;14.93;;;7.87;;
18738;SDS011;9498;51.862;19.460;2023-04-23T06:21:31;17.17;;;7.40;;
18738;SDS011;9498;51.862;19.460;2023-04-23T06:23:58;17.77;;;8.77;;
18738;SDS011;9498;51.862;19.460;2023-04-23T06:26:25;17.43;;;8.00;;
18738;SDS011;9498;51.862;19.460;2023-04-23T06:28:53;18.60;;;8.87;;
18738;SDS011;9498;51.862;19.460;2023-04-23T06:31:20;13.53;;;7.47;;
18738;SDS011;9498;51.862;19.460;2023-04-23T06:33:49;18.07;;;8.23;;
18738;SDS011;9498;51.862;19.460;2023-04-23T06:36:16;20.60;;;8.53;;
18738;SDS011;9498;51.862;19.460;2023-04-23T06:38:43;16.87;;;8.20;;
18738;SDS011;9498;51.862;19.460;2023-04-23T06:41:10;17.13;;;8.00;;
18738;SDS011;9498;51.862;19.460;2023-04-23T06:43:38;16.87;;;8.87;;
18738;SDS011;9498;51.862;19.460;2023-04-23T06:46:05;20.33;;;8.30;;
18738;SDS011;9498;51.862;19.460;2023-04-23T06:48:32;15.63;;;7.77;;
18738;SDS011;9498;51.862;19.460;2023-04-23T06:51:01;20.57;;;8.20;;
18738;SDS011;9498;51.862;19.460;2023-04-23T06:53:30;17.10;;;7.80;;
18738;SDS011;9498;51.862;19.460;2023-04-23T06:55:57;17.13;;;8.60;;
18738;SDS011;9498;51.862;19.460;2023-04-23T06:58:24;21.60;;;8.97;;
18738;SDS011;9498;51.862;19.460;2023-04-23T07:00:56;16.77;;;8.60;;
18738;SDS011;9498;51.862;19.460;2023-04-23T07:03:25;14.53;;;7.30;;
18738;SDS011;9498;51.862;19.460;2023-04-23T07:05:53;16.47;;;8.10;;
18738;SDS011;9498;51.862;19.460;2023-04-23T07:08:22;15.30;;;7.90;;
18738;SDS011;9498;51.862;19.460;2023-04-23T07:10:49;16.20;;;8.00;;
18738;SDS011;9498;51.862;19.460;2023-04-23T07:13:17;14.33;;;7.57;;
18738;SDS011;9498;51.862;19.460;2023-04-23T07:15:44;16.27;;;7.83;;
18738;SDS011;9498;51.862;19.460;2023-04-23T07:18:13;16.00;;;8.03;;
18738;SDS011;9498;51.862;19.460;2023-04-23T07:20:40;19.10;;;7.93;;
18738;SDS011;9498;51.862;19.460;2023-04-23T07:23:07;15.53;;;8.40;;
18738;SDS011;9498;51.862;19.460;2023-04-23T07:25:36;15.23;;;7.47;;
18738;SDS011;9498;51.862;19.460;2023-04-23T07:28:03;23.80;;;8.67;;
18738;SDS011;9498;51.862;19.460;2023-04-23T07:30:31;14.13;;;8.27;;
18738;SDS011;9498;51.862;19.460;2023-04-23T07:32:58;14.50;;;7.40;;
18738;SDS011;9498;51.862;19.460;2023-04-23T07:35:25;17.20;;;7.37;;
18738;SDS011;9498;51.862;19.460;2023-04-23T07:37:52;14.70;;;7.77;;
18738;SDS011;9498;51.862;19.460;2023-04-23T07:40:22;13.87;;;7.43;;
18738;SDS011;9498;51.862;19.460;2023-04-23T07:42:51;15.83;;;8.13;;
18738;SDS011;9498;51.862;19.460;2023-04-23T07:45:18;18.20;;;7.97;;
18738;SDS011;9498;51.862;19.460;2023-04-23T07:47:46;15.10;;;7.67;;
18738;SDS011;9498;51.862;19.460;2023-04-23T07:50:14;19.23;;;8.57;;
18738;SDS011;9498;51.862;19.460;2023-04-23T07:52:41;16.23;;;8.20;;
18738;SDS011;9498;51.862;19.460;2023-04-23T07:55:08;15.87;;;8.13;;
18738;SDS011;9498;51.862;19.460;2023-04-23T07:57:35;16.27;;;8.50;;
18738;SDS011;9498;51.862;19.460;2023-04-23T08:00:05;16.23;;;7.97;;
18738;SDS011;9498;51.862;19.460;2023-04-23T08:02:33;13.87;;;8.07;;
18738;SDS011;9498;51.862;19.460;2023-04-23T08:05:00;14.17;;;8.10;;
18738;SDS011;9498;51.862;19.460;2023-04-23T08:07:28;15.10;;;8.13;;
18738;SDS011;9498;51.862;19.460;2023-04-23T08:09:55;21.23;;;9.40;;
18738;SDS011;9498;51.862;19.460;2023-04-23T08:12:26;16.40;;;8.40;;
18738;SDS011;9498;51.862;19.460;2023-04-23T08:14:55;16.83;;;8.20;;
18738;SDS011;9498;51.862;19.460;2023-04-23T08:17:23;18.03;;;9.00;;
18738;SDS011;9498;51.862;19.460;2023-04-23T08:19:51;16.10;;;7.80;;
18738;SDS011;9498;51.862;19.460;2023-04-23T08:22:18;17.40;;;8.73;;
18738;SDS011;9498;51.862;19.460;2023-04-23T08:24:45;16.80;;;8.03;;
18738;SDS011;9498;51.862;19.460;2023-04-23T08:27:12;13.67;;;7.73;;
18738;SDS011;9498;51.862;19.460;2023-04-23T08:29:39;16.23;;;8.00;;
18738;SDS011;9498;51.862;19.460;2023-04-23T08:32:07;11.60;;;7.17;;
18738;SDS011;9498;51.862;19.460;2023-04-23T08:34:36;14.57;;;7.13;;
18738;SDS011;9498;51.862;19.460;2023-04-23T08:37:03;12.43;;;6.77;;
18738;SDS011;9498;51.862;19.460;2023-04-23T08:39:31;16.27;;;7.60;;
18738;SDS011;9498;51.862;19.460;2023-04-23T08:42:00;25.27;;;8.77;;
18738;SDS011;9498;51.862;19.460;2023-04-23T08:44:30;20.23;;;8.10;;
18738;SDS011;9498;51.862;19.460;2023-04-23T08:46:57;13.33;;;7.43;;
18738;SDS011;9498;51.862;19.460;2023-04-23T08:49:28;12.23;;;6.90;;
18738;SDS011;9498;51.862;19.460;2023-04-23T08:52:02;13.00;;;6.67;;
18738;SDS011;9498;51.862;19.460;2023-04-23T08:54:33;13.87;;;6.53;;
18738;SDS011;9498;51.862;19.460;2023-04-23T08:57:01;13.43;;;6.00;;
18738;SDS011;9498;51.862;19.460;2023-04-23T08:59:29;11.60;;;5.70;;
18738;SDS011;9498;51.862;19.460;2023-04-23T09:01:57;14.87;;;6.40;;
18738;SDS011;9498;51.862;19.460;2023-04-23T09:04:25;14.23;;;6.97;;
18738;SDS011;9498;51.862;19.460;2023-04-23T09:06:54;9.97;;;5.47;;
18738;SDS011;9498;51.862;19.460;2023-04-23T09:09:22;13.03;;;6.33;;
18738;SDS011;9498;51.862;19.460;2023-04-23T09:11:50;12.60;;;6.20;;
18738;SDS011;9498;51.862;19.460;2023-04-23T09:14:18;14.23;;;6.20;;
18738;SDS011;9498;51.862;19.460;2023-04-23T09:16:47;11.00;;;5.87;;
18738;SDS011;9498;51.862;19.460;2023-04-23T09:19:14;16.30;;;7.33;;
18738;SDS011;9498;51.862;19.460;2023-04-23T09:21:41;13.67;;;6.10;;
18738;SDS011;9498;51.862;19.460;2023-04-23T09:24:10;18.03;;;7.40;;
18738;SDS011;9498;51.862;19.460;2023-04-23T09:26:44;13.43;;;6.23;;
18738;SDS011;9498;51.862;19.460;2023-04-23T09:29:12;14.00;;;6.63;;
18738;SDS011;9498;51.862;19.460;2023-04-23T09:31:43;12.97;;;6.37;;
18738;SDS011;9498;51.862;19.460;2023-04-23T09:34:11;20.47;;;6.57;;
18738;SDS011;9498;51.862;19.460;2023-04-23T09:36:41;11.63;;;6.73;;
18738;SDS011;9498;51.862;19.460;2023-04-23T09:39:12;13.33;;;6.60;;
18738;SDS011;9498;51.862;19.460;2023-04-23T09:41:39;15.37;;;7.03;;
18738;SDS011;9498;51.862;19.460;2023-04-23T09:44:08;11.97;;;6.67;;
18738;SDS011;9498;51.862;19.460;2023-04-23T09:46:37;19.70;;;7.50;;
18738;SDS011;9498;51.862;19.460;2023-04-23T09:49:04;13.02;;;6.97;;
18738;SDS011;9498;51.862;19.460;2023-04-23T09:51:34;17.53;;;6.77;;
18738;SDS011;9498;51.862;19.460;2023-04-23T09:54:02;12.90;;;6.73;;
18738;SDS011;9498;51.862;19.460;2023-04-23T09:56:30;12.30;;;6.30;;
18738;SDS011;9498;51.862;19.460;2023-04-23T09:58:57;13.80;;;6.00;;
18738;SDS011;9498;51.862;19.460;2023-04-23T10:01:28;12.63;;;5.90;;
18738;SDS011;9498;51.862;19.460;2023-04-23T10:03:56;9.53;;;5.77;;
18738;SDS011;9498;51.862;19.460;2023-04-23T10:06:27;16.55;;;6.20;;
18738;SDS011;9498;51.862;19.460;2023-04-23T10:08:56;14.37;;;5.80;;
18738;SDS011;9498;51.862;19.460;2023-04-23T10:11:23;11.33;;;5.43;;
18738;SDS011;9498;51.862;19.460;2023-04-23T10:13:51;13.20;;;4.50;;
18738;SDS011;9498;51.862;19.460;2023-04-23T10:16:20;13.43;;;5.47;;
18738;SDS011;9498;51.862;19.460;2023-04-23T10:18:50;12.00;;;5.30;;
18738;SDS011;9498;51.862;19.460;2023-04-23T10:21:19;9.00;;;5.00;;
18738;SDS011;9498;51.862;19.460;2023-04-23T10:23:46;13.43;;;4.90;;
18738;SDS011;9498;51.862;19.460;2023-04-23T10:26:14;13.23;;;5.30;;
18738;SDS011;9498;51.862;19.460;2023-04-23T10:28:42;15.33;;;5.33;;
18738;SDS011;9498;51.862;19.460;2023-04-23T10:31:11;9.83;;;4.93;;
18738;SDS011;9498;51.862;19.460;2023-04-23T10:33:38;12.80;;;5.07;;
18738;SDS011;9498;51.862;19.460;2023-04-23T10:36:09;16.47;;;5.83;;
18738;SDS011;9498;51.862;19.460;2023-04-23T10:38:36;10.93;;;5.10;;
18738;SDS011;9498;51.862;19.460;2023-04-23T10:41:04;9.37;;;4.63;;
18738;SDS011;9498;51.862;19.460;2023-04-23T10:43:33;10.63;;;4.73;;
18738;SDS011;9498;51.862;19.460;2023-04-23T10:46:00;8.85;;;4.30;;
18738;SDS011;9498;51.862;19.460;2023-04-23T10:48:28;12.10;;;4.47;;
18738;SDS011;9498;51.862;19.460;2023-04-23T10:50:58;9.93;;;4.50;;
18738;SDS011;9498;51.862;19.460;2023-04-23T10:53:26;10.37;;;4.17;;
18738;SDS011;9498;51.862;19.460;2023-04-23T10:56:03;11.63;;;3.90;;
18738;SDS011;9498;51.862;19.460;2023-04-23T10:58:46;10.27;;;4.60;;
18738;SDS011;9498;51.862;19.460;2023-04-23T11:01:13;9.77;;;4.27;;
18738;SDS011;9498;51.862;19.460;2023-04-23T11:03:41;10.67;;;4.47;;
18738;SDS011;9498;51.862;19.460;2023-04-23T11:06:08;9.03;;;4.30;;
18738;SDS011;9498;51.862;19.460;2023-04-23T11:08:46;7.03;;;4.07;;
18738;SDS011;9498;51.862;19.460;2023-04-23T11:11:17;10.30;;;3.97;;
18738;SDS011;9498;51.862;19.460;2023-04-23T11:13:53;13.17;;;4.77;;
18738;SDS011;9498;51.862;19.460;2023-04-23T11:16:20;12.97;;;5.17;;
18738;SDS011;9498;51.862;19.460;2023-04-23T11:18:55;13.10;;;5.80;;
18738;SDS011;9498;51.862;19.460;2023-04-23T11:21:22;14.37;;;4.50;;
18738;SDS011;9498;51.862;19.460;2023-04-23T11:24:10;9.33;;;4.73;;
18738;SDS011;9498;51.862;19.460;2023-04-23T11:26:38;11.47;;;4.93;;
18738;SDS011;9498;51.862;19.460;2023-04-23T11:29:05;11.33;;;4.67;;
18738;SDS011;9498;51.862;19.460;2023-04-23T11:31:33;8.52;;;4.57;;
18738;SDS011;9498;51.862;19.460;2023-04-23T11:34:01;11.40;;;4.30;;
18738;SDS011;9498;51.862;19.460;2023-04-23T11:36:28;9.27;;;5.07;;
18738;SDS011;9498;51.862;19.460;2023-04-23T11:38:55;12.50;;;4.73;;
18738;SDS011;9498;51.862;19.460;2023-04-23T11:41:24;11.27;;;4.60;;
18738;SDS011;9498;51.862;19.460;2023-04-23T11:43:54;11.77;;;5.20;;
18738;SDS011;9498;51.862;19.460;2023-04-23T11:46:22;11.60;;;4.83;;
18738;SDS011;9498;51.862;19.460;2023-04-23T11:48:50;9.27;;;4.17;;
18738;SDS011;9498;51.862;19.460;2023-04-23T11:51:17;11.07;;;4.47;;
18738;SDS011;9498;51.862;19.460;2023-04-23T11:53:45;8.07;;;4.20;;
18738;SDS011;9498;51.862;19.460;2023-04-23T11:56:14;8.82;;;4.70;;
18738;SDS011;9498;51.862;19.460;2023-04-23T11:58:43;10.63;;;5.63;;
18738;SDS011;9498;51.862;19.460;2023-04-23T12:01:11;12.13;;;4.77;;
18738;SDS011;9498;51.862;19.460;2023-04-23T12:03:39;6.90;;;4.23;;
18738;SDS011;9498;51.862;19.460;2023-04-23T12:06:06;10.23;;;4.90;;
18738;SDS011;9498;51.862;19.460;2023-04-23T12:08:33;10.03;;;5.27;;
18738;SDS011;9498;51.862;19.460;2023-04-23T12:11:04;8.47;;;5.23;;
18738;SDS011;9498;51.862;19.460;2023-04-23T12:13:31;18.27;;;5.20;;
18738;SDS011;9498;51.862;19.460;2023-04-23T12:16:01;13.23;;;4.67;;
18738;SDS011;9498;51.862;19.460;2023-04-23T12:18:28;8.87;;;4.60;;
18738;SDS011;9498;51.862;19.460;2023-04-23T12:20:56;13.03;;;4.10;;
18738;SDS011;9498;51.862;19.460;2023-04-23T12:23:26;8.57;;;4.00;;
18738;SDS011;9498;51.862;19.460;2023-04-23T12:25:53;8.13;;;3.90;;
18738;SDS011;9498;51.862;19.460;2023-04-23T12:28:21;7.27;;;4.10;;
18738;SDS011;9498;51.862;19.460;2023-04-23T12:30:49;8.82;;;3.85;;
18738;SDS011;9498;51.862;19.460;2023-04-23T12:33:17;8.60;;;3.70;;
18738;SDS011;9498;51.862;19.460;2023-04-23T12:35:48;7.63;;;3.57;;
18738;SDS011;9498;51.862;19.460;2023-04-23T12:38:22;10.20;;;4.40;;
18738;SDS011;9498;51.862;19.460;2023-04-23T12:40:50;11.00;;;3.70;;
18738;SDS011;9498;51.862;19.460;2023-04-23T12:43:17;7.00;;;3.50;;
18738;SDS011;9498;51.862;19.460;2023-04-23T12:45:44;6.57;;;3.87;;
18738;SDS011;9498;51.862;19.460;2023-04-23T12:48:11;7.20;;;3.87;;
18738;SDS011;9498;51.862;19.460;2023-04-23T12:50:40;14.77;;;4.13;;
18738;SDS011;9498;51.862;19.460;2023-04-23T12:53:07;10.43;;;4.40;;
18738;SDS011;9498;51.862;19.460;2023-04-23T12:55:34;12.50;;;3.77;;
18738;SDS011;9498;51.862;19.460;2023-04-23T12:58:03;12.00;;;3.90;;
18738;SDS011;9498;51.862;19.460;2023-04-23T13:00:31;8.07;;;4.03;;
18738;SDS011;9498;51.862;19.460;2023-04-23T13:02:58;7.67;;;3.97;;
18738;SDS011;9498;51.862;19.460;2023-04-23T13:05:26;9.90;;;4.03;;
18738;SDS011;9498;51.862;19.460;2023-04-23T13:07:54;7.70;;;3.60;;
18738;SDS011;9498;51.862;19.460;2023-04-23T13:10:22;9.57;;;3.80;;
18738;SDS011;9498;51.862;19.460;2023-04-23T13:12:49;9.67;;;4.00;;
18738;SDS011;9498;51.862;19.460;2023-04-23T13:15:16;8.53;;;3.90;;
18738;SDS011;9498;51.862;19.460;2023-04-23T13:17:44;7.17;;;3.63;;
18738;SDS011;9498;51.862;19.460;2023-04-23T13:20:11;6.77;;;3.77;;
18738;SDS011;9498;51.862;19.460;2023-04-23T13:22:38;8.33;;;3.60;;
18738;SDS011;9498;51.862;19.460;2023-04-23T13:25:07;8.60;;;3.90;;
18738;SDS011;9498;51.862;19.460;2023-04-23T13:27:34;6.70;;;3.33;;
18738;SDS011;9498;51.862;19.460;2023-04-23T13:30:02;8.17;;;3.60;;
18738;SDS011;9498;51.862;19.460;2023-04-23T13:32:30;4.77;;;3.30;;
18738;SDS011;9498;51.862;19.460;2023-04-23T13:34:57;5.63;;;3.50;;
18738;SDS011;9498;51.862;19.460;2023-04-23T13:37:28;7.23;;;3.47;;
18738;SDS011;9498;51.862;19.460;2023-04-23T13:39:55;9.70;;;3.70;;
18738;SDS011;9498;51.862;19.460;2023-04-23T13:42:24;6.77;;;4.07;;
18738;SDS011;9498;51.862;19.460;2023-04-23T13:44:51;5.60;;;3.07;;
18738;SDS011;9498;51.862;19.460;2023-04-23T13:47:18;8.13;;;4.07;;
18738;SDS011;9498;51.862;19.460;2023-04-23T13:49:46;11.27;;;3.77;;
18738;SDS011;9498;51.862;19.460;2023-04-23T13:52:13;7.63;;;4.17;;
18738;SDS011;9498;51.862;19.460;2023-04-23T13:54:40;5.63;;;3.50;;
18738;SDS011;9498;51.862;19.460;2023-04-23T13:57:08;6.80;;;3.87;;
18738;SDS011;9498;51.862;19.460;2023-04-23T13:59:36;5.70;;;3.70;;
18738;SDS011;9498;51.862;19.460;2023-04-23T14:02:04;5.73;;;3.40;;
18738;SDS011;9498;51.862;19.460;2023-04-23T14:04:31;5.63;;;3.73;;
18738;SDS011;9498;51.862;19.460;2023-04-23T14:06:58;11.10;;;4.00;;
18738;SDS011;9498;51.862;19.460;2023-04-23T14:09:25;9.17;;;3.60;;
18738;SDS011;9498;51.862;19.460;2023-04-23T14:11:53;10.00;;;3.57;;
18738;SDS011;9498;51.862;19.460;2023-04-23T14:14:21;9.63;;;3.20;;
18738;SDS011;9498;51.862;19.460;2023-04-23T14:16:50;7.93;;;4.00;;
18738;SDS011;9498;51.862;19.460;2023-04-23T14:19:17;6.33;;;3.40;;
18738;SDS011;9498;51.862;19.460;2023-04-23T14:21:44;6.47;;;3.30;;
18738;SDS011;9498;51.862;19.460;2023-04-23T14:24:16;5.77;;;3.20;;
18738;SDS011;9498;51.862;19.460;2023-04-23T14:26:43;6.50;;;3.40;;
18738;SDS011;9498;51.862;19.460;2023-04-23T14:29:16;8.57;;;3.17;;
18738;SDS011;9498;51.862;19.460;2023-04-23T14:31:44;12.83;;;4.30;;
18738;SDS011;9498;51.862;19.460;2023-04-23T14:34:13;4.80;;;3.53;;
18738;SDS011;9498;51.862;19.460;2023-04-23T14:36:40;6.20;;;3.60;;
18738;SDS011;9498;51.862;19.460;2023-04-23T14:39:07;5.37;;;3.37;;
18738;SDS011;9498;51.862;19.460;2023-04-23T14:41:35;7.27;;;3.23;;